Time;durP1;ratioP1;P1;durP2;ratioP2;P2;SDS_P1;SDS_P2;PMS_P1;PMS_P2;Temp;Humidity;BMP_temperature;BMP_pressure;BME280_temperature;BME280_humidity;BME280_pressure;Samples;Min_cycle;Max_cycle;Signal;HPM_P1;HPM_P2
2022/06/11 00:01:01;;;;;;;21.07;19.03;;;;;;;22.92;63.70;93956.69;4972388;28;20511;-81
2022/06/11 00:03:26;;;;;;;19.67;17.77;;;;;;;23.07;63.24;93966.38;4993822;28;20464;-81
2022/06/11 00:05:52;;;;;;;18.43;16.73;;;;;;;23.14;62.80;93960.66;4989631;28;20242;-81
2022/06/11 00:08:19;;;;;;;17.87;16.20;;;;;;;23.41;62.07;93964.50;4976145;28;20186;-81
2022/06/11 00:10:45;;;;;;;18.03;16.20;;;;;;;23.25;62.43;93953.28;4980389;28;20192;-81
2022/06/11 00:13:10;;;;;;;17.60;15.93;;;;;;;23.35;62.82;93961.13;4977682;28;20508;-81
2022/06/11 00:15:36;;;;;;;18.67;16.80;;;;;;;23.47;61.87;93961.50;4977332;28;20485;-81
2022/06/11 00:18:04;;;;;;;17.53;15.83;;;;;;;23.42;62.55;93972.25;4975755;28;20178;-81
2022/06/11 00:20:30;;;;;;;17.27;15.43;;;;;;;23.40;62.87;93963.72;4975982;28;20455;-81
2022/06/11 00:22:56;;;;;;;16.03;14.60;;;;;;;23.47;62.58;93964.16;4977214;28;20512;-81
2022/06/11 00:25:22;;;;;;;16.87;15.13;;;;;;;23.58;61.99;93957.56;4979086;28;20488;-81
2022/06/11 00:27:48;;;;;;;17.10;15.40;;;;;;;23.55;62.06;93965.38;4974868;28;20425;-81
2022/06/11 00:30:15;;;;;;;16.83;15.10;;;;;;;23.54;62.13;93958.41;4975436;28;20830;-82
2022/06/11 00:32:41;;;;;;;16.67;15.00;;;;;;;23.56;62.14;93961.59;4981688;28;20174;-81
2022/06/11 00:35:08;;;;;;;18.13;16.43;;;;;;;23.41;62.68;93964.50;4991860;28;20955;-81
2022/06/11 00:37:34;;;;;;;17.43;15.77;;;;;;;23.48;62.49;93965.72;4989386;28;20452;-81
2022/06/11 00:40:00;;;;;;;19.57;17.27;;;;;;;23.38;62.92;93963.22;4982138;28;20452;-81
2022/06/11 00:42:31;;;;;;;17.37;15.77;;;;;;;23.43;62.90;93965.81;4985955;28;20225;-81
2022/06/11 00:45:14;;;;;;;19.13;17.27;;;;;;;22.68;66.01;93974.63;4966635;28;21042;-82
2022/06/11 00:47:41;;;;;;;20.03;17.90;;;;;;;23.00;64.72;93955.22;4978598;28;20951;-82
2022/06/11 00:50:42;;;;;;;20.73;18.73;;;;;;;23.39;63.64;93967.47;4986930;28;20502;-81
2022/06/11 00:53:16;;;;;;;22.53;20.33;;;;;;;22.80;66.09;93957.13;4975921;28;20434;-81
2022/06/11 00:55:43;;;;;;;20.60;18.27;;;;;;;23.25;64.32;93961.31;4984739;28;20433;-81
2022/06/11 00:58:16;;;;;;;17.70;15.77;;;;;;;23.51;63.37;93962.47;4979687;28;20527;-81
2022/06/11 01:00:46;;;;;;;18.93;16.93;;;;;;;23.42;63.47;93966.91;4979286;28;20433;-79
2022/06/11 01:03:17;;;;;;;17.00;15.20;;;;;;;23.27;63.73;93956.47;4978303;28;20924;-82
2022/06/11 01:05:47;;;;;;;19.20;16.93;;;;;;;23.16;64.34;93958.50;4973259;28;20447;-82
2022/06/11 01:08:27;;;;;;;15.63;14.13;;;;;;;23.08;64.09;93957.28;4981350;28;20460;-81
2022/06/11 01:11:28;;;;;;;16.97;15.40;;;;;;;22.94;64.84;93956.41;4974157;28;20445;-81
2022/06/11 01:14:10;;;;;;;16.57;14.90;;;;;;;22.77;65.33;93957.69;4981206;28;20967;-82
2022/06/11 01:16:45;;;;;;;16.60;15.10;;;;;;;22.87;65.40;93955.97;4974578;28;20532;-81
2022/06/11 01:19:48;;;;;;;17.87;16.07;;;;;;;22.79;65.65;93955.50;4979757;28;20432;-81
2022/06/11 01:22:38;;;;;;;18.67;16.77;;;;;;;22.87;65.75;93950.63;4968275;28;20480;-81
2022/06/11 01:25:15;;;;;;;17.17;15.47;;;;;;;22.87;65.30;93953.28;4974887;28;21084;-80
2022/06/11 01:28:18;;;;;;;17.30;15.57;;;;;;;23.03;64.85;93954.69;4983892;28;20428;-81
2022/06/11 01:30:50;;;;;;;14.53;13.20;;;;;;;22.59;66.00;93956.59;4973563;28;20456;-81
2022/06/11 01:33:33;;;;;;;16.80;15.10;;;;;;;22.79;65.61;93963.53;4986385;28;20500;-82
2022/06/11 01:36:04;;;;;;;15.83;14.33;;;;;;;22.97;65.05;93959.28;4973841;28;20437;-81
2022/06/11 01:38:37;;;;;;;14.80;13.40;;;;;;;23.04;65.01;93969.63;4975408;28;20433;-82
2022/06/11 01:41:28;;;;;;;15.70;14.27;;;;;;;23.06;64.65;93970.13;4974349;28;20464;-81
2022/06/11 01:44:06;;;;;;;14.90;13.60;;;;;;;23.22;63.82;93962.69;4975916;28;20461;-81
2022/06/11 01:46:36;;;;;;;15.33;13.73;;;;;;;23.15;64.10;93971.06;4974013;28;20432;-80
2022/06/11 01:49:06;;;;;;;16.50;14.90;;;;;;;22.79;65.99;93966.19;4974890;28;20428;-83
2022/06/11 01:52:02;;;;;;;17.20;15.40;;;;;;;22.93;64.57;93960.91;4973738;28;21291;-81
2022/06/11 01:54:27;;;;;;;16.00;14.50;;;;;;;22.77;65.38;93965.69;4975905;28;20429;-80
2022/06/11 01:57:02;;;;;;;14.73;13.27;;;;;;;22.78;65.17;93967.28;4985022;28;20540;-80
2022/06/11 01:59:36;;;;;;;16.60;13.87;;;;;;;22.60;66.05;93962.72;4973828;28;20188;-82
2022/06/11 02:02:14;;;;;;;15.67;14.20;;;;;;;22.38;66.83;93973.91;4972494;28;21042;-82
2022/06/11 02:04:54;;;;;;;15.07;13.70;;;;;;;22.89;65.04;93975.13;4982092;28;20479;-82
2022/06/11 02:07:41;;;;;;;16.50;14.80;;;;;;;22.57;66.25;93969.41;4975118;28;20437;-83
2022/06/11 02:10:34;;;;;;;16.00;14.60;;;;;;;22.55;66.50;93965.44;4974965;28;20417;-82
2022/06/11 02:13:14;;;;;;;16.77;14.70;;;;;;;22.48;66.80;93965.81;4968780;28;20544;-83
2022/06/11 02:15:52;;;;;;;15.03;13.73;;;;;;;22.71;65.63;93966.03;4975178;28;20441;-81
2022/06/11 02:18:21;;;;;;;15.00;13.50;;;;;;;22.47;66.21;93968.75;4973686;28;20417;-82
2022/06/11 02:20:53;;;;;;;13.80;12.60;;;;;;;22.73;65.72;93969.22;4971288;28;20505;-81
2022/06/11 02:23:43;;;;;;;13.60;12.30;;;;;;;22.63;65.64;93967.47;4974035;28;20531;-81
2022/06/11 02:26:15;;;;;;;13.87;12.57;;;;;;;22.26;66.54;93963.66;4970757;28;20441;-82
2022/06/11 02:28:45;;;;;;;12.83;10.70;;;;;;;22.57;65.55;93972.06;4973587;28;20492;-81
2022/06/11 02:31:14;;;;;;;15.70;14.20;;;;;;;22.50;65.93;93968.97;4978178;28;20448;-81
2022/06/11 02:33:41;;;;;;;13.20;12.00;;;;;;;23.02;63.91;93971.75;4975648;28;20436;-81
2022/06/11 02:36:09;;;;;;;14.43;13.13;;;;;;;22.52;65.50;93971.34;4956336;28;20544;-81
2022/06/11 02:38:35;;;;;;;14.43;12.43;;;;;;;22.18;66.80;93972.25;4973886;28;20422;-81
2022/06/11 02:41:06;;;;;;;13.53;12.37;;;;;;;22.26;66.39;93970.88;4980278;28;20448;-81
2022/06/11 02:43:32;;;;;;;13.93;12.03;;;;;;;22.64;65.42;93973.59;4973937;28;20288;-82
2022/06/11 02:45:58;;;;;;;12.73;11.57;;;;;;;22.84;64.71;93968.00;4973332;28;20964;-82
2022/06/11 02:48:24;;;;;;;13.10;11.80;;;;;;;22.91;64.05;93965.75;4973552;28;20413;-81
2022/06/11 02:50:50;;;;;;;13.80;12.50;;;;;;;22.66;65.05;93974.13;4977705;28;20472;-81
2022/06/11 02:53:17;;;;;;;14.60;13.20;;;;;;;22.72;65.12;93976.41;4980434;28;20181;-81
2022/06/11 02:55:44;;;;;;;12.80;11.70;;;;;;;22.71;65.11;93974.84;4980645;28;20185;-81
2022/06/11 02:58:11;;;;;;;12.23;11.13;;;;;;;22.79;65.01;93971.53;4973185;28;20819;-81
2022/06/11 03:00:41;;;;;;;12.80;11.50;;;;;;;22.77;65.01;93973.69;4983515;28;20536;-81
2022/06/11 03:03:07;;;;;;;12.60;11.50;;;;;;;22.89;63.76;93983.13;4971849;28;20552;-81
2022/06/11 03:05:34;;;;;;;12.77;11.60;;;;;;;22.40;65.45;93975.22;4972499;28;20550;-81
2022/06/11 03:08:01;;;;;;;13.47;12.27;;;;;;;22.64;64.84;93981.59;4976557;28;20452;-82
2022/06/11 03:10:28;;;;;;;13.50;12.30;;;;;;;22.70;64.89;93980.47;4973099;28;20535;-82
2022/06/11 03:12:54;;;;;;;13.50;12.10;;;;;;;22.79;64.62;93981.41;4953904;28;20462;-82
2022/06/11 03:15:21;;;;;;;13.30;12.10;;;;;;;22.83;64.26;93989.63;4956354;28;20477;-81
2022/06/11 03:17:49;;;;;;;11.67;10.63;;;;;;;22.74;64.63;93990.25;4961040;28;20852;-82
2022/06/11 03:20:15;;;;;;;13.23;11.93;;;;;;;22.84;64.27;93985.88;4954698;28;20422;-81
2022/06/11 03:22:41;;;;;;;13.00;11.67;;;;;;;23.00;63.78;93992.59;4954002;29;20524;-81
2022/06/11 03:25:09;;;;;;;11.90;10.80;;;;;;;22.99;63.93;93994.47;4953381;28;20426;-81
2022/06/11 03:27:36;;;;;;;12.80;11.60;;;;;;;23.07;63.66;93998.41;4967960;28;20425;-82
2022/06/11 03:30:02;;;;;;;12.50;11.43;;;;;;;23.12;63.36;93995.63;4959981;28;20438;-81
2022/06/11 03:32:28;;;;;;;12.17;10.97;;;;;;;23.10;63.32;93995.13;4952930;28;20486;-82
2022/06/11 03:34:54;;;;;;;11.60;10.50;;;;;;;22.90;63.94;93998.09;4957889;28;20430;-81
2022/06/11 03:37:19;;;;;;;12.23;11.10;;;;;;;23.04;64.12;93998.19;4959419;28;20825;-81
2022/06/11 03:39:45;;;;;;;13.47;12.20;;;;;;;23.02;63.80;94000.31;4968369;28;20186;-82
2022/06/11 03:42:11;;;;;;;12.47;11.37;;;;;;;23.04;63.80;93996.31;4959737;28;20288;-82
2022/06/11 03:44:37;;;;;;;11.73;10.53;;;;;;;23.22;63.21;93988.56;4963278;28;20179;-82
2022/06/11 03:47:03;;;;;;;13.20;12.00;;;;;;;23.21;63.37;93993.13;4956872;28;20442;-82
2022/06/11 03:49:29;;;;;;;11.77;10.77;;;;;;;23.43;62.69;93991.72;4939931;29;20182;-81
2022/06/11 03:51:54;;;;;;;10.60;9.70;;;;;;;23.45;62.18;93997.56;4958975;28;20465;-82
2022/06/11 03:54:20;;;;;;;12.00;10.90;;;;;;;23.24;62.77;93986.41;4964256;28;20171;-82
2022/06/11 03:56:48;;;;;;;11.40;10.50;;;;;;;22.84;63.72;93999.22;4963148;29;20242;-82
2022/06/11 03:59:15;;;;;;;12.20;11.10;;;;;;;23.17;62.96;94000.91;4956135;29;20194;-82
2022/06/11 04:01:41;;;;;;;11.30;10.23;;;;;;;23.11;63.44;93998.63;4957681;28;20603;-81
2022/06/11 04:04:09;;;;;;;10.83;9.93;;;;;;;23.34;62.65;94003.06;4969987;28;20473;-81
2022/06/11 04:06:39;;;;;;;10.57;9.63;;;;;;;23.39;62.56;94005.69;4959693;28;20521;-81
2022/06/11 04:09:09;;;;;;;11.10;10.20;;;;;;;23.02;63.61;94003.00;4964611;28;20414;-81
2022/06/11 04:11:35;;;;;;;11.93;10.83;;;;;;;23.48;62.67;94008.47;4962784;28;20466;-81
2022/06/11 04:14:01;;;;;;;11.50;10.50;;;;;;;23.41;62.68;94004.56;4978424;28;20435;-83
2022/06/11 04:16:35;;;;;;;12.23;10.90;;;;;;;23.14;63.57;94008.72;4976711;28;20441;-82
2022/06/11 04:19:04;;;;;;;11.17;10.27;;;;;;;23.17;63.59;94006.25;4980404;28;20196;-82
2022/06/11 04:21:32;;;;;;;16.00;11.43;;;;;;;23.29;63.32;94016.50;4980604;28;20445;-82
2022/06/11 04:23:59;;;;;;;10.63;9.57;;;;;;;23.32;63.22;94009.81;4976581;28;20461;-81
2022/06/11 04:26:31;;;;;;;12.57;11.40;;;;;;;23.29;62.93;94011.16;4976088;28;20445;-82
2022/06/11 04:29:00;;;;;;;11.10;10.00;;;;;;;23.25;63.36;94010.16;4976646;28;20476;-81
2022/06/11 04:31:27;;;;;;;11.70;10.70;;;;;;;23.30;63.11;94014.63;4987382;28;20455;-81
2022/06/11 04:33:52;;;;;;;11.63;10.63;;;;;;;23.28;63.35;94011.47;4972475;28;20509;-81
2022/06/11 04:36:21;;;;;;;12.60;11.17;;;;;;;23.32;63.32;94009.81;4979911;28;20464;-83
2022/06/11 04:38:48;;;;;;;12.60;11.07;;;;;;;23.12;63.53;94013.53;4985740;28;20197;-83
2022/06/11 04:41:14;;;;;;;9.53;8.67;;;;;;;23.28;63.03;94014.91;4981557;28;20970;-82
2022/06/11 04:43:41;;;;;;;10.80;9.77;;;;;;;23.55;61.99;94016.13;4975080;28;20291;-82
2022/06/11 04:46:07;;;;;;;10.50;9.60;;;;;;;23.26;62.77;94017.09;4976813;28;20960;-81
2022/06/11 04:48:33;;;;;;;9.70;8.90;;;;;;;23.64;61.53;94022.38;4989079;28;20495;-81
2022/06/11 04:50:59;;;;;;;9.03;8.13;;;;;;;23.44;61.63;94028.81;4991323;28;20424;-81
2022/06/11 04:53:24;;;;;;;9.10;8.20;;;;;;;23.31;61.83;94038.34;4994169;28;20479;-82
2022/06/11 04:55:51;;;;;;;8.37;7.57;;;;;;;23.33;61.47;94032.72;4978555;28;20955;-81
2022/06/11 04:58:17;;;;;;;8.37;7.17;;;;;;;23.24;62.10;94042.47;4979198;28;20185;-80
2022/06/11 05:00:43;;;;;;;8.80;7.90;;;;;;;22.96;62.69;94040.41;4976357;28;20519;-83
2022/06/11 05:03:08;;;;;;;7.67;7.07;;;;;;;22.97;62.01;94042.00;4970778;28;20597;-81
2022/06/11 05:05:34;;;;;;;8.50;7.80;;;;;;;23.12;61.63;94042.91;4970881;28;20305;-80
2022/06/11 05:08:01;;;;;;;7.23;6.63;;;;;;;23.34;60.94;94053.03;4973213;28;20186;-81
2022/06/11 05:10:29;;;;;;;8.17;7.50;;;;;;;22.87;62.67;94046.69;4971949;28;20209;-81
2022/06/11 05:12:55;;;;;;;6.50;5.97;;;;;;;22.89;62.41;94055.19;4972715;28;20477;-81
2022/06/11 05:15:21;;;;;;;8.30;7.50;;;;;;;22.88;62.83;94059.75;4957194;28;20449;-81
2022/06/11 05:17:47;;;;;;;9.40;8.23;;;;;;;22.97;62.92;94058.03;4970859;28;20448;-83
2022/06/11 05:20:14;;;;;;;10.50;9.50;;;;;;;23.10;62.75;94056.53;4973539;28;20917;-82
2022/06/11 05:22:40;;;;;;;9.13;7.50;;;;;;;23.35;62.30;94063.41;4971882;28;20209;-82
2022/06/11 05:25:06;;;;;;;8.77;7.97;;;;;;;23.36;62.52;94058.88;4978561;28;20436;-83
2022/06/11 05:27:32;;;;;;;8.23;7.53;;;;;;;23.39;61.91;94066.28;4978351;28;20236;-82
2022/06/11 05:30:08;;;;;;;7.23;6.53;;;;;;;23.47;61.57;94071.00;4974076;28;20437;-81
2022/06/11 05:32:37;;;;;;;7.97;7.37;;;;;;;23.64;60.90;94075.00;4978030;28;20728;-81
2022/06/11 05:35:06;;;;;;;6.93;6.40;;;;;;;23.71;59.90;94076.25;4972415;28;20531;-81
2022/06/11 05:37:32;;;;;;;5.90;5.50;;;;;;;23.54;60.38;94076.78;4972594;28;20982;-81
2022/06/11 05:39:57;;;;;;;5.67;5.27;;;;;;;23.70;59.45;94079.22;4950900;28;20449;-82
2022/06/11 05:42:24;;;;;;;5.10;4.70;;;;;;;23.93;58.42;94081.00;4952698;28;20205;-81
2022/06/11 05:44:50;;;;;;;4.97;4.67;;;;;;;23.66;59.44;94078.22;4971671;28;20178;-81
2022/06/11 05:47:19;;;;;;;7.47;5.17;;;;;;;23.83;59.08;94080.34;4971608;28;20424;-82
2022/06/11 05:49:49;;;;;;;5.00;4.70;;;;;;;23.85;59.06;94076.31;4971065;28;20418;-82
2022/06/11 05:52:22;;;;;;;6.30;5.80;;;;;;;23.85;59.06;94078.22;4976199;28;20438;-82
2022/06/11 05:54:49;;;;;;;6.80;5.43;;;;;;;23.94;59.18;94085.28;4983325;28;20929;-81
2022/06/11 05:57:19;;;;;;;6.17;5.67;;;;;;;23.78;59.60;94087.38;4962973;28;20432;-81
2022/06/11 05:59:49;;;;;;;5.93;5.13;;;;;;;24.04;58.73;94091.53;4973198;28;20436;-81
2022/06/11 06:02:18;;;;;;;7.63;6.97;;;;;;;24.11;58.40;94094.59;4968428;28;20473;-81
2022/06/11 06:04:43;;;;;;;6.10;5.60;;;;;;;23.89;58.66;94089.91;4972960;28;20659;-82
2022/06/11 06:07:09;;;;;;;6.70;6.20;;;;;;;23.96;58.56;94093.00;4974548;28;21016;-82
2022/06/11 06:09:36;;;;;;;6.30;5.80;;;;;;;24.36;56.89;94091.50;4974349;28;20273;-82
2022/06/11 06:12:02;;;;;;;5.80;5.30;;;;;;;24.27;57.65;94087.94;4970907;28;20464;-82
2022/06/11 06:14:28;;;;;;;6.23;5.60;;;;;;;24.03;57.62;94093.41;4974517;28;20977;-82
2022/06/11 06:16:53;;;;;;;6.43;5.93;;;;;;;23.96;58.09;94085.78;4975382;28;20465;-82
2022/06/11 06:19:19;;;;;;;7.27;6.60;;;;;;;23.69;59.07;94101.66;4971977;28;20185;-80
2022/06/11 06:21:45;;;;;;;6.73;5.67;;;;;;;23.68;59.49;94103.53;4971598;28;20206;-82
2022/06/11 06:24:10;;;;;;;6.43;5.83;;;;;;;23.10;61.21;94099.25;4973118;28;20201;-82
2022/06/11 06:26:36;;;;;;;7.70;6.90;;;;;;;23.36;60.61;94098.91;4975289;28;20188;-81
2022/06/11 06:29:02;;;;;;;6.83;6.20;;;;;;;23.72;59.63;94106.44;4977651;28;20249;-83
2022/06/11 06:31:28;;;;;;;5.77;5.37;;;;;;;24.01;58.99;94106.25;4992897;28;20491;-81
2022/06/11 06:33:58;;;;;;;5.50;4.90;;;;;;;23.66;59.99;94110.28;4982751;28;20430;-81
2022/06/11 06:36:24;;;;;;;6.77;6.17;;;;;;;23.80;59.15;94110.34;4980227;28;20181;-82
2022/06/11 06:38:51;;;;;;;9.63;6.03;;;;;;;23.74;58.87;94110.38;4991629;28;20439;-82
2022/06/11 06:41:17;;;;;;;6.10;5.50;;;;;;;23.84;59.01;94106.78;4977619;28;20170;-83
2022/06/11 06:43:43;;;;;;;6.20;5.80;;;;;;;24.06;58.44;94113.44;4978749;28;20458;-81
2022/06/11 06:46:08;;;;;;;5.80;5.30;;;;;;;24.59;56.25;94121.09;4981069;28;20647;-81
2022/06/11 06:48:34;;;;;;;7.00;6.30;;;;;;;24.05;58.24;94122.53;4984039;28;20170;-81
2022/06/11 06:51:00;;;;;;;6.63;6.03;;;;;;;24.00;58.51;94114.56;4990789;28;20177;-81
2022/06/11 06:53:26;;;;;;;6.13;5.63;;;;;;;23.98;58.60;94117.56;4992300;28;20181;-82
2022/06/11 06:55:52;;;;;;;6.73;6.13;;;;;;;24.20;57.97;94113.47;4988068;28;20443;-81
2022/06/11 06:58:18;;;;;;;6.30;5.70;;;;;;;23.62;59.77;94114.56;4973573;28;20192;-82
2022/06/11 07:00:45;;;;;;;7.00;6.40;;;;;;;24.05;58.36;94117.19;4971362;28;20579;-83
2022/06/11 07:03:13;;;;;;;7.30;6.70;;;;;;;23.80;59.64;94118.38;4975781;28;20463;-81
2022/06/11 07:05:39;;;;;;;9.47;6.20;;;;;;;24.28;58.18;94108.25;4978007;28;20536;-81
2022/06/11 07:08:06;;;;;;;7.00;6.40;;;;;;;24.64;56.86;94112.97;4973251;28;20477;-82
2022/06/11 07:10:33;;;;;;;7.50;6.80;;;;;;;24.94;57.05;94113.47;4978238;28;20456;-81
2022/06/11 07:12:59;;;;;;;7.43;6.80;;;;;;;24.86;56.09;94111.50;4989340;28;20496;-82
2022/06/11 07:15:25;;;;;;;4.60;4.30;;;;;;;24.48;56.88;94114.31;4978083;28;20535;-81
2022/06/11 07:17:57;;;;;;;6.40;5.40;;;;;;;24.73;56.61;94111.19;4991107;28;20436;-82
2022/06/11 07:20:25;;;;;;;5.83;5.33;;;;;;;24.25;58.06;94122.19;4979311;28;20483;-82
2022/06/11 07:23:20;;;;;;;6.07;5.57;;;;;;;24.31;57.15;94120.22;4982365;28;20513;-82
2022/06/11 07:25:47;;;;;;;6.10;5.60;;;;;;;24.19;58.01;94123.38;4969789;28;20503;-82
2022/06/11 07:28:19;;;;;;;5.23;4.83;;;;;;;24.69;57.03;94130.81;4977327;28;20409;-81
2022/06/11 07:30:45;;;;;;;5.47;4.97;;;;;;;25.44;54.87;94132.31;4980482;28;20432;-81
2022/06/11 07:33:20;;;;;;;5.00;4.70;;;;;;;24.51;55.62;94137.78;4982077;28;20425;-82
2022/06/11 07:35:48;;;;;;;6.00;5.57;;;;;;;24.42;56.79;94135.00;4977692;28;20430;-83
2022/06/11 07:38:14;;;;;;;5.13;4.73;;;;;;;24.52;56.72;94142.09;4977211;28;20432;-82
2022/06/11 07:40:41;;;;;;;5.87;5.47;;;;;;;23.89;58.06;94140.69;4986697;28;20456;-83
2022/06/11 07:43:07;;;;;;;5.20;4.60;;;;;;;24.55;56.07;94138.84;4970278;28;20550;-81
2022/06/11 07:45:38;;;;;;;6.40;5.80;;;;;;;24.64;56.36;94149.63;4977210;28;20437;-82
2022/06/11 07:48:04;;;;;;;5.60;5.10;;;;;;;24.89;55.86;94146.50;4959937;28;20432;-82
2022/06/11 07:50:36;;;;;;;5.73;5.03;;;;;;;24.81;54.50;94143.72;4975153;28;20829;-81
2022/06/11 07:53:04;;;;;;;5.50;5.00;;;;;;;24.87;55.73;94145.19;4978822;28;20443;-82
2022/06/11 07:55:30;;;;;;;6.03;5.30;;;;;;;24.90;55.85;94147.31;4976684;28;20445;-81
2022/06/11 07:57:57;;;;;;;5.10;4.70;;;;;;;25.32;54.82;94148.88;4973377;28;20436;-82
2022/06/11 08:00:27;;;;;;;6.20;5.70;;;;;;;25.92;53.31;94144.44;4974430;28;20449;-81
2022/06/11 08:02:52;;;;;;;5.90;5.37;;;;;;;25.77;53.39;94134.81;4974881;28;20465;-82
2022/06/11 08:05:18;;;;;;;4.73;4.43;;;;;;;26.27;52.50;94142.81;4973569;28;20439;-81
2022/06/11 08:07:44;;;;;;;5.10;4.80;;;;;;;26.56;51.50;94133.50;4975650;28;20178;-82
2022/06/11 08:10:11;;;;;;;4.13;3.90;;;;;;;27.13;50.07;94140.06;4971992;28;20503;-82
2022/06/11 08:12:37;;;;;;;4.30;4.00;;;;;;;27.33;49.27;94150.28;4971635;28;20512;-82
2022/06/11 08:15:03;;;;;;;4.10;3.80;;;;;;;26.64;50.08;94150.78;4976837;28;20464;-82
2022/06/11 08:17:31;;;;;;;4.80;4.40;;;;;;;27.73;48.84;94150.19;4972460;28;20188;-81
2022/06/11 08:19:56;;;;;;;4.90;4.50;;;;;;;28.18;47.34;94144.53;4973826;28;20445;-82
2022/06/11 08:22:22;;;;;;;5.00;4.50;;;;;;;28.35;47.57;94143.72;4970001;28;21063;-82
2022/06/11 08:24:48;;;;;;;4.80;4.40;;;;;;;28.48;47.09;94146.56;4973671;28;20181;-82
2022/06/11 08:27:15;;;;;;;4.93;4.47;;;;;;;27.68;46.59;94150.38;4970899;28;20448;-82
2022/06/11 08:29:41;;;;;;;4.00;3.80;;;;;;;28.41;45.54;94147.81;4974454;28;20240;-81
2022/06/11 08:32:07;;;;;;;5.60;4.30;;;;;;;28.58;46.09;94146.25;4977082;28;21055;-81
2022/06/11 08:34:41;;;;;;;5.17;4.77;;;;;;;27.73;47.29;94144.81;4972356;28;20178;-81
2022/06/11 08:37:08;;;;;;;5.13;4.83;;;;;;;27.77;47.48;94143.06;4972707;28;20448;-81
2022/06/11 08:39:34;;;;;;;4.63;4.23;;;;;;;27.98;46.06;94137.09;4973100;28;20424;-82
2022/06/11 08:42:01;;;;;;;4.80;4.40;;;;;;;28.51;45.16;94137.84;4974081;28;20812;-82
2022/06/11 08:44:28;;;;;;;3.80;3.53;;;;;;;28.38;43.87;94137.72;4969964;28;20461;-81
2022/06/11 08:46:59;;;;;;;3.97;3.77;;;;;;;28.88;43.06;94133.63;4971547;28;20452;-81
2022/06/11 08:49:42;;;;;;;4.20;3.90;;;;;;;29.73;42.02;94135.47;4844021;28;20512;-82
2022/06/11 08:52:13;;;;;;;7.13;3.83;;;;;;;27.94;46.02;94133.47;4976435;28;20433;-82
2022/06/11 08:54:42;;;;;;;4.73;4.33;;;;;;;27.65;45.69;94132.94;4969458;28;20426;-81
2022/06/11 08:57:16;;;;;;;4.57;4.23;;;;;;;26.42;48.50;94135.47;4973691;28;20441;-81
2022/06/11 08:59:58;;;;;;;5.47;5.07;;;;;;;27.84;46.14;94129.94;4970021;28;20441;-81
2022/06/11 09:02:42;;;;;;;5.53;5.00;;;;;;;28.46;44.03;94133.41;4970277;28;20484;-82
2022/06/11 09:05:19;;;;;;;5.13;4.63;;;;;;;27.27;46.95;94130.81;4970294;28;20425;-81
2022/06/11 09:08:01;;;;;;;4.27;3.87;;;;;;;28.88;43.43;94133.63;4971338;28;20448;-81
2022/06/11 09:10:42;;;;;;;4.40;4.00;;;;;;;27.04;47.22;94127.41;4969858;28;20519;-81
2022/06/11 09:13:22;;;;;;;4.60;4.30;;;;;;;27.37;45.89;94127.03;4950945;29;20449;-81
2022/06/11 09:15:55;;;;;;;5.13;4.73;;;;;;;27.73;45.75;94123.31;4950506;29;20433;-81
2022/06/11 09:18:48;;;;;;;4.70;4.30;;;;;;;27.49;45.06;94128.34;4950517;29;20446;-81
2022/06/11 09:21:22;;;;;;;4.93;4.63;;;;;;;28.13;44.70;94125.06;4944528;28;20489;-81
2022/06/11 09:24:09;;;;;;;5.70;5.20;;;;;;;28.36;43.97;94117.59;4949202;29;20558;-81
2022/06/11 09:27:00;;;;;;;5.23;4.83;;;;;;;28.74;43.39;94122.25;4951711;29;20430;-81
2022/06/11 09:29:47;;;;;;;5.60;5.20;;;;;;;29.07;41.45;94127.06;4951429;28;20442;-81
2022/06/11 09:32:17;;;;;;;5.53;5.17;;;;;;;28.11;43.85;94127.28;4951430;28;21351;-81
2022/06/11 09:34:53;;;;;;;4.97;4.57;;;;;;;28.49;42.83;94119.31;4939782;29;20806;-81
2022/06/11 09:37:25;;;;;;;4.77;4.47;;;;;;;28.70;43.24;94118.63;4952562;28;20748;-82
2022/06/11 09:40:21;;;;;;;5.73;5.33;;;;;;;28.48;44.81;94125.81;4951656;28;20456;-80
2022/06/11 09:42:57;;;;;;;6.93;5.83;;;;;;;28.83;43.85;94130.34;4951740;28;20582;-81
2022/06/11 09:45:25;;;;;;;5.10;4.70;;;;;;;29.17;41.94;94130.19;4951304;28;20447;-81
2022/06/11 09:48:30;;;;;;;5.37;4.97;;;;;;;28.89;42.65;94139.81;4950067;28;20505;-82
2022/06/11 09:51:25;;;;;;;8.10;4.47;;;;;;;28.34;43.89;94130.56;4949519;28;20466;-81
2022/06/11 09:54:07;;;;;;;4.80;4.47;;;;;;;28.67;42.89;94138.94;4929884;28;20438;-81
2022/06/11 09:56:49;;;;;;;5.00;4.70;;;;;;;27.62;45.14;94138.16;4949664;28;20435;-80
2022/06/11 09:59:32;;;;;;;4.87;4.50;;;;;;;26.68;47.59;94139.09;4953923;28;20426;-82
2022/06/11 10:01:57;;;;;;;5.40;4.90;;;;;;;26.43;47.31;94142.44;4951661;28;20496;-80
2022/06/11 10:04:29;;;;;;;5.27;4.77;;;;;;;26.70;46.53;94135.34;4951450;29;20478;-81
2022/06/11 10:06:59;;;;;;;6.90;4.37;;;;;;;27.36;44.97;94133.53;4953213;28;20182;-81
2022/06/11 10:09:36;;;;;;;4.77;4.47;;;;;;;26.60;46.68;94133.72;4951731;28;20425;-81
2022/06/11 10:12:14;;;;;;;4.67;4.30;;;;;;;27.41;44.92;94129.91;4949510;28;20498;-81
2022/06/11 10:14:52;;;;;;;4.23;3.93;;;;;;;27.06;44.71;94127.88;4952311;28;20441;-81
2022/06/11 10:17:48;;;;;;;5.73;4.23;;;;;;;28.05;43.72;94132.03;4957779;28;20957;-82
2022/06/11 10:20:19;;;;;;;4.60;4.30;;;;;;;27.88;41.82;94126.63;4933287;29;20434;-80
2022/06/11 10:23:43;;;;;;;4.47;4.07;;;;;;;28.08;41.89;94128.72;4950816;28;21091;-81
2022/06/11 10:26:25;;;;;;;6.63;4.03;;;;;;;28.45;41.64;94131.03;4890970;29;20496;-78
2022/06/11 10:29:14;;;;;;;3.80;3.43;;;;;;;28.26;42.04;94142.94;4889601;29;20438;-81
2022/06/11 10:31:58;;;;;;;7.90;4.70;;;;;;;28.79;41.93;94140.97;4931900;29;20477;-81
2022/06/11 10:34:26;;;;;;;6.10;4.57;;;;;;;28.55;41.97;94147.69;4952318;28;20430;-82
2022/06/11 10:37:08;;;;;;;4.70;4.40;;;;;;;26.83;47.72;94161.31;4951726;28;20434;-82
2022/06/11 10:39:39;;;;;;;4.33;4.00;;;;;;;26.71;49.14;94171.81;4956146;28;20604;-81
2022/06/11 10:42:16;;;;;;;4.93;4.20;;;;;;;25.27;52.88;94177.66;4948367;28;20969;-81
2022/06/11 10:44:50;;;;;;;5.13;4.53;;;;;;;22.50;61.98;94186.84;4946275;28;20442;-81
2022/06/11 10:47:23;;;;;;;5.37;4.87;;;;;;;23.28;60.18;94193.03;4947325;28;20429;-80
2022/06/11 10:50:02;;;;;;;5.77;5.20;;;;;;;23.91;59.14;94189.28;4947634;28;20529;-81
2022/06/11 10:52:30;;;;;;;5.90;5.30;;;;;;;24.25;58.97;94197.06;4958666;28;20802;-81
2022/06/11 10:54:57;;;;;;;6.37;5.77;;;;;;;24.24;60.05;94200.03;4912600;28;20703;-82
2022/06/11 10:57:26;;;;;;;6.63;6.13;;;;;;;24.79;56.98;94204.78;4787276;29;20988;-81
2022/06/11 11:00:00;;;;;;;6.20;5.73;;;;;;;24.89;57.28;94199.25;4947080;28;20553;-82
2022/06/11 11:02:33;;;;;;;6.80;6.30;;;;;;;25.14;56.79;94201.47;4951229;28;21059;-81
2022/06/11 11:05:06;;;;;;;5.87;5.40;;;;;;;25.01;57.59;94199.56;4954811;28;20445;-81
2022/06/11 11:07:55;;;;;;;6.40;5.80;;;;;;;25.31;56.76;94194.75;4948444;29;20541;-81
2022/06/11 11:10:35;;;;;;;5.67;5.20;;;;;;;25.02;56.37;94193.09;4936315;28;20438;-81
2022/06/11 11:13:06;;;;;;;5.83;4.83;;;;;;;25.32;55.26;94205.16;4954876;28;20437;-82
2022/06/11 11:15:41;;;;;;;4.80;4.40;;;;;;;25.94;54.16;94198.56;4960063;28;20436;-81
2022/06/11 11:18:19;;;;;;;5.40;4.90;;;;;;;26.16;52.75;94200.47;4944455;28;20509;-81
2022/06/11 11:20:47;;;;;;;4.53;4.20;;;;;;;25.78;54.02;94197.25;4941659;29;20442;-81
2022/06/11 11:23:28;;;;;;;6.00;5.40;;;;;;;25.12;56.87;94189.47;4947188;29;20486;-82
2022/06/11 11:25:57;;;;;;;5.20;4.50;;;;;;;25.04;57.15;94190.94;4945476;28;20492;-82
2022/06/11 11:28:32;;;;;;;5.93;5.33;;;;;;;24.69;60.02;94187.81;4946208;28;20510;-82
2022/06/11 11:31:07;;;;;;;5.23;4.73;;;;;;;24.91;59.44;94181.03;4946691;28;20467;-82
2022/06/11 11:33:36;;;;;;;5.17;4.67;;;;;;;25.83;57.70;94184.53;4946088;29;20473;-81
2022/06/11 11:36:10;;;;;;;3.83;3.53;;;;;;;25.99;55.78;94179.69;4948161;28;20471;-82
2022/06/11 11:38:35;;;;;;;4.03;3.73;;;;;;;27.20;52.67;94180.72;4949913;28;20429;-81
2022/06/11 11:41:03;;;;;;;3.83;3.33;;;;;;;27.42;50.90;94177.97;4949070;28;20446;-82
2022/06/11 11:43:41;;;;;;;5.13;3.40;;;;;;;27.16;49.97;94174.38;4946105;29;20259;-82
2022/06/11 11:46:12;;;;;;;3.53;3.23;;;;;;;28.27;47.16;94178.72;4949539;28;20475;-81